Time;durP1;ratioP1;P1;durP2;ratioP2;P2;SDS_P1;SDS_P2;PMS_P1;PMS_P2;Temp;Humidity;BMP_temperature;BMP_pressure;BME280_temperature;BME280_humidity;BME280_pressure;Samples;Min_cycle;Max_cycle;Signal;HPM_P1;HPM_P2
2022/02/03 00:00:44;0.00;0.00;0.62;0.00;0.00;0.62;4.23;2.30;;;21.80;26.80;;;;;;2237220;62;20423;-63
2022/02/03 00:03:51;0.00;0.00;0.62;0.00;0.00;0.62;3.93;1.93;;;21.80;26.80;;;;;;2237422;62;20747;-63
2022/02/03 00:06:53;0.00;0.00;0.62;0.00;0.00;0.62;4.60;2.60;;;21.70;26.50;;;;;;2237895;62;20439;-63
2022/02/03 00:22:08;0.00;0.00;0.62;0.00;0.00;0.62;5.53;2.40;;;21.40;26.10;;;;;;2237184;62;20367;-63
2022/02/03 00:25:11;0.00;0.00;0.62;0.00;0.00;0.62;7.73;2.70;;;21.40;26.10;;;;;;2236810;62;20791;-62
2022/02/03 00:28:15;0.00;0.00;0.62;0.00;0.00;0.62;4.00;2.17;;;21.40;26.20;;;;;;2237782;62;20367;-63
2022/02/03 00:31:04;0.00;0.00;0.62;0.00;0.00;0.62;7.90;2.50;;;21.30;26.10;;;;;;2236744;62;20399;-63
2022/02/03 00:34:02;0.00;0.00;0.62;0.00;0.00;0.62;3.97;2.17;;;21.30;26.10;;;;;;2237317;62;20444;-63
2022/02/03 00:48:59;0.00;0.00;0.62;0.00;0.00;0.62;4.03;2.07;;;21.10;26.00;;;;;;2239522;62;20745;-64
2022/02/03 00:51:48;0.00;0.00;0.62;0.00;0.00;0.62;5.90;2.17;;;21.10;26.00;;;;;;2240931;62;20882;-63
2022/02/03 00:54:33;0.00;0.00;0.62;0.00;0.00;0.62;4.60;2.47;;;21.10;26.00;;;;;;2240996;62;20463;-63
2022/02/03 00:57:29;0.00;0.00;0.62;0.00;0.00;0.62;3.93;1.80;;;21.00;26.00;;;;;;2241272;62;20649;-62
2022/02/03 01:00:17;0.00;0.00;0.62;0.00;0.00;0.62;2.60;1.60;;;21.00;26.00;;;;;;2240538;62;20381;-63
2022/02/03 01:03:11;0.00;0.00;0.62;0.00;0.00;0.62;4.97;1.90;;;21.00;26.00;;;;;;2240841;62;20491;-63
2022/02/03 01:05:59;0.00;0.00;0.62;0.00;0.00;0.62;3.73;1.87;;;21.00;26.00;;;;;;2241831;62;20594;-63
2022/02/03 01:08:48;0.00;0.00;0.62;0.00;0.00;0.62;6.07;2.73;;;20.90;25.90;;;;;;2240806;62;20625;-63
2022/02/03 01:11:40;0.00;0.00;0.62;0.00;0.00;0.62;3.73;2.10;;;20.90;25.90;;;;;;2241106;62;20367;-63
2022/02/03 01:14:39;0.00;0.00;0.62;0.00;0.00;0.62;4.80;2.07;;;20.90;26.00;;;;;;2241058;62;20366;-63
2022/02/03 01:20:44;0.00;0.00;0.62;0.00;0.00;0.62;3.57;1.83;;;20.80;26.00;;;;;;2241600;62;20622;-63
2022/02/03 01:45:00;0.00;0.00;0.62;0.00;0.00;0.62;4.87;2.10;;;20.70;25.90;;;;;;2240533;62;20366;-63
2022/02/03 01:53:46;0.00;0.00;0.62;0.00;0.00;0.62;5.87;2.17;;;20.60;25.80;;;;;;2237525;62;20370;-64
2022/02/03 01:56:44;0.00;0.00;0.62;0.00;0.00;0.62;4.60;2.27;;;20.60;25.80;;;;;;2237907;62;20395;-62
2022/02/03 01:59:31;0.00;0.00;0.62;0.00;0.00;0.62;3.07;2.50;;;20.60;25.90;;;;;;2236987;62;20391;-63
2022/02/03 02:02:20;0.00;0.00;0.62;0.00;0.00;0.62;2.93;2.00;;;20.60;25.90;;;;;;2237564;62;20755;-63
2022/02/03 02:05:31;0.00;0.00;0.62;0.00;0.00;0.62;3.90;2.03;;;20.50;25.80;;;;;;2238305;62;20441;-62
2022/02/03 02:08:29;0.00;0.00;0.62;0.00;0.00;0.62;3.53;2.10;;;20.50;26.40;;;;;;2237427;62;20363;-63
2022/02/03 02:11:43;0.00;0.00;0.62;0.00;0.00;0.62;4.40;2.40;;;20.50;25.90;;;;;;2237984;62;20634;-63
2022/02/03 02:15:20;0.00;0.00;0.62;0.00;0.00;0.62;5.70;2.80;;;20.50;25.90;;;;;;2237136;62;20416;-62
2022/02/03 02:18:18;0.00;0.00;0.62;0.00;0.00;0.62;5.67;2.67;;;20.50;25.90;;;;;;2237858;62;20723;-63
2022/02/03 02:40:28;0.00;0.00;0.62;0.00;0.00;0.62;6.20;2.40;;;20.20;25.70;;;;;;2237568;62;20410;-63
2022/02/03 02:43:22;0.00;0.00;0.62;0.00;0.00;0.62;4.03;2.10;;;20.20;25.80;;;;;;2237338;62;20805;-63
2022/02/03 02:46:14;0.00;0.00;0.62;0.00;0.00;0.62;4.70;2.40;;;20.20;25.80;;;;;;2237653;62;20407;-63
2022/02/03 02:49:14;0.00;0.00;0.62;0.00;0.00;0.62;4.93;2.27;;;20.20;25.80;;;;;;2238715;62;20849;-62
2022/02/03 02:52:08;0.00;0.00;0.62;0.00;0.00;0.62;4.80;2.70;;;20.10;25.70;;;;;;2236939;62;20360;-61
2022/02/03 03:32:35;0.00;0.00;0.62;0.00;0.00;0.62;6.77;3.80;;;19.80;26.00;;;;;;2237192;62;20436;-61
2022/02/03 03:38:17;0.00;0.00;0.62;0.00;0.00;0.62;13.70;4.47;;;19.80;26.10;;;;;;2237104;62;20384;-63
2022/02/03 03:41:03;0.00;0.00;0.62;0.00;0.00;0.62;8.57;3.10;;;19.70;26.10;;;;;;2238022;62;20378;-64
2022/02/03 03:44:05;0.00;0.00;0.62;0.00;0.00;0.62;6.47;4.10;;;19.70;26.20;;;;;;2236834;62;20362;-62
2022/02/03 03:46:51;0.00;0.00;0.62;0.00;0.00;0.62;5.80;3.57;;;19.70;26.30;;;;;;2237355;62;20411;-62
2022/02/03 03:49:45;0.00;0.00;0.62;0.00;0.00;0.62;6.33;3.07;;;19.70;26.40;;;;;;2240634;62;20439;-62
2022/02/03 03:52:32;0.00;0.00;0.62;0.00;0.00;0.62;7.73;3.63;;;19.60;26.30;;;;;;2241151;62;20366;-64
2022/02/03 03:55:44;0.00;0.00;0.62;0.00;0.00;0.62;7.90;3.27;;;19.60;26.30;;;;;;2241718;62;20370;-63
2022/02/03 03:59:01;0.00;0.00;0.62;0.00;0.00;0.62;7.20;3.13;;;19.60;26.30;;;;;;2240606;62;20407;-61
2022/02/03 04:31:08;0.00;0.00;0.62;0.00;0.00;0.62;3.77;3.03;;;19.40;26.30;;;;;;2240992;62;20370;-61
2022/02/03 04:44:01;0.00;0.00;0.62;0.00;0.00;0.62;6.63;3.03;;;19.40;26.50;;;;;;2240245;62;20419;-63
2022/02/03 05:03:37;0.00;0.00;0.62;0.00;0.00;0.62;2.17;1.83;;;19.30;26.70;;;;;;2241695;62;20358;-61
2022/02/03 05:06:56;0.00;0.00;0.62;0.00;0.00;0.62;2.20;1.70;;;19.30;26.70;;;;;;2241136;62;20645;-62
2022/02/03 05:10:24;0.00;0.00;0.62;0.00;0.00;0.62;3.13;2.00;;;19.30;26.70;;;;;;2241565;62;20422;-61
2022/02/03 05:46:58;0.00;0.00;0.62;0.00;0.00;0.62;3.60;1.60;;;19.60;27.20;;;;;;2242194;62;20370;-63
2022/02/03 06:14:04;0.00;0.00;0.62;0.00;0.00;0.62;2.00;1.27;;;19.80;27.40;;;;;;2237487;62;20363;-63
2022/02/03 06:22:50;0.00;0.00;0.62;0.00;0.00;0.62;2.47;1.27;;;19.80;27.30;;;;;;2237773;62;20375;-64
2022/02/03 06:28:28;0.00;0.00;0.62;0.00;0.00;0.62;3.37;1.60;;;19.90;27.30;;;;;;2237424;62;20363;-63
2022/02/03 06:31:13;0.00;0.00;0.62;0.00;0.00;0.62;1.93;1.20;;;19.90;27.30;;;;;;2238169;62;20581;-63
2022/02/03 06:33:57;0.00;0.00;0.62;0.00;0.00;0.62;1.83;1.00;;;19.90;27.30;;;;;;2236825;62;20485;-63
2022/02/03 06:36:43;0.00;0.00;0.62;0.00;0.00;0.62;2.83;1.30;;;19.90;27.30;;;;;;2237682;62;20395;-64
2022/02/03 06:39:30;0.00;0.00;0.62;0.00;0.00;0.62;2.00;1.30;;;20.00;27.30;;;;;;2237402;62;20678;-64
2022/02/03 06:42:15;0.00;0.00;0.62;0.00;0.00;0.62;2.63;1.30;;;20.00;27.30;;;;;;2237462;62;20363;-63
2022/02/03 06:45:10;0.00;0.00;0.62;0.00;0.00;0.62;2.27;1.37;;;20.00;27.30;;;;;;2237768;62;20396;-64
2022/02/03 06:48:02;0.00;0.00;0.62;0.00;0.00;0.62;1.50;1.00;;;20.00;27.20;;;;;;2237813;62;20379;-64
2022/02/03 06:50:53;0.00;0.00;0.62;0.00;0.00;0.62;2.33;1.47;;;20.00;27.30;;;;;;2240975;62;20818;-62
2022/02/03 06:53:42;0.00;0.00;0.62;0.00;0.00;0.62;1.50;1.10;;;20.00;27.20;;;;;;2242071;62;20366;-62
2022/02/03 06:56:39;0.00;0.00;0.62;0.00;0.00;0.62;1.90;1.07;;;20.00;27.20;;;;;;2241003;62;20362;-64
2022/02/03 06:59:33;0.00;0.00;0.62;0.00;0.00;0.62;1.60;1.10;;;20.00;27.20;;;;;;2241437;62;20463;-63
2022/02/03 07:02:20;0.00;0.00;0.62;0.00;0.00;0.62;1.67;1.00;;;20.10;27.20;;;;;;2241387;62;20781;-64
2022/02/03 07:05:06;0.00;0.00;0.62;0.00;0.00;0.62;2.33;1.07;;;20.10;27.20;;;;;;2241442;62;20359;-63
2022/02/03 07:07:51;0.00;0.00;0.62;0.00;0.00;0.62;1.93;1.63;;;20.10;27.20;;;;;;2242092;62;20370;-64
2022/02/03 07:10:37;0.00;0.00;0.62;0.00;0.00;0.62;2.03;1.20;;;20.10;27.20;;;;;;2240991;62;20383;-64
2022/02/03 07:13:23;0.00;0.00;0.62;0.00;0.00;0.62;1.80;1.10;;;20.10;27.20;;;;;;2241105;62;20374;-63
2022/02/03 07:16:07;0.00;0.00;0.62;0.00;0.00;0.62;1.50;1.00;;;20.10;27.20;;;;;;2241898;62;20630;-63
2022/02/03 07:18:52;0.00;0.00;0.62;0.00;0.00;0.62;1.60;1.00;;;20.10;27.10;;;;;;2241102;62;20683;-62
2022/02/03 07:21:37;0.00;0.00;0.62;0.00;0.00;0.62;2.10;1.30;;;20.10;27.10;;;;;;2241575;62;20402;-62
2022/02/03 07:24:21;0.00;0.00;0.62;0.00;0.00;0.62;1.80;1.10;;;20.10;27.10;;;;;;2241333;62;20370;-62
2022/02/03 07:27:07;0.00;0.00;0.62;0.00;0.00;0.62;2.17;1.40;;;20.10;27.10;;;;;;2241344;62;20358;-64
2022/02/03 07:29:53;0.00;0.00;0.62;0.00;0.00;0.62;1.70;1.10;;;20.10;27.00;;;;;;2241709;62;20609;-62
2022/02/03 07:32:38;0.00;0.00;0.62;0.00;0.00;0.62;1.60;1.20;;;20.20;27.10;;;;;;2240863;62;20362;-64
2022/02/03 07:35:24;0.00;0.00;0.62;0.00;0.00;0.62;1.77;1.00;;;20.20;27.10;;;;;;2241507;62;20370;-61
2022/02/03 07:38:09;0.00;0.00;0.62;0.00;0.00;0.62;1.70;1.30;;;20.20;27.10;;;;;;2241932;62;20346;-63
2022/02/03 07:40:53;0.00;0.00;0.62;0.00;0.00;0.62;1.50;0.97;;;20.20;27.10;;;;;;2241222;62;20401;-63
2022/02/03 07:43:39;0.00;0.00;0.62;0.00;0.00;0.62;2.07;1.30;;;20.20;27.00;;;;;;2241511;62;20359;-62
2022/02/03 07:46:24;0.00;0.00;0.62;0.00;0.00;0.62;1.40;1.00;;;20.20;27.00;;;;;;2241186;61;20374;-64
2022/02/03 07:49:09;0.00;0.00;0.62;0.00;0.00;0.62;1.70;1.00;;;20.20;27.00;;;;;;2238175;62;20391;-64
2022/02/03 07:51:53;0.00;0.00;0.62;0.00;0.00;0.62;1.80;1.20;;;20.20;27.00;;;;;;2237816;62;20371;-62
2022/02/03 07:54:39;0.00;0.00;0.62;0.00;0.00;0.62;1.77;1.00;;;20.20;27.00;;;;;;2236763;62;20657;-62
2022/02/03 07:57:24;0.00;0.00;0.62;0.00;0.00;0.62;1.43;1.00;;;20.20;27.00;;;;;;2237263;62;20416;-62
2022/02/03 08:00:12;0.00;0.00;0.62;0.00;0.00;0.62;1.43;0.90;;;20.30;27.10;;;;;;2237779;62;20407;-62
2022/02/03 08:03:04;0.00;0.00;0.62;0.00;0.00;0.62;1.40;0.90;;;20.20;27.00;;;;;;2236735;62;20394;-64
2022/02/03 08:05:55;0.00;0.00;0.62;0.00;0.00;0.62;2.17;1.30;;;20.30;27.00;;;;;;2237419;62;20772;-61
2022/02/03 08:08:45;0.00;0.00;0.62;0.00;0.00;0.62;2.07;1.30;;;20.30;27.00;;;;;;2237134;62;20359;-60
2022/02/03 08:11:35;0.00;0.00;0.62;0.00;0.00;0.62;1.70;1.20;;;20.30;27.00;;;;;;2237266;62;20457;-65
2022/02/03 08:14:28;0.00;0.00;0.62;0.00;0.00;0.62;1.93;1.13;;;20.30;27.00;;;;;;2237881;62;20443;-63
2022/02/03 08:17:25;0.00;0.00;0.62;0.00;0.00;0.62;1.70;0.90;;;20.30;27.00;;;;;;2236903;62;20364;-63
2022/02/03 08:20:17;0.00;0.00;0.62;0.00;0.00;0.62;1.70;1.00;;;20.30;27.00;;;;;;2237179;62;20403;-63
2022/02/03 08:29:28;0.00;0.00;0.62;0.00;0.00;0.62;1.70;1.03;;;20.30;26.90;;;;;;2237386;62;20759;-63
2022/02/03 08:32:17;0.00;0.00;0.62;0.00;0.00;0.62;1.80;1.10;;;20.40;27.00;;;;;;2236482;62;20371;-63
2022/02/03 08:40:46;0.00;0.00;0.62;0.00;0.00;0.62;1.60;0.87;;;20.30;26.90;;;;;;2237077;62;20403;-63
2022/02/03 08:43:33;0.00;0.00;0.62;0.00;0.00;0.62;1.93;1.10;;;20.40;27.00;;;;;;2237460;62;20392;-63
2022/02/03 08:46:19;0.00;0.00;0.62;0.00;0.00;0.62;1.80;1.20;;;20.40;27.00;;;;;;2237008;62;20396;-63
2022/02/03 08:49:07;0.00;0.00;0.62;0.00;0.00;0.62;1.57;1.17;;;20.40;27.00;;;;;;2239602;62;20571;-61
2022/02/03 08:51:52;0.00;0.00;0.62;0.00;0.00;0.62;1.53;0.93;;;20.40;26.90;;;;;;2241641;62;20726;-62
2022/02/03 08:54:38;0.00;0.00;0.62;0.00;0.00;0.62;1.50;1.10;;;20.40;26.90;;;;;;2240485;62;20371;-64
2022/02/03 08:57:36;0.00;0.00;0.62;0.00;0.00;0.62;1.60;1.10;;;20.40;26.90;;;;;;2241481;61;20395;-62
2022/02/03 09:40:17;0.00;0.00;0.62;0.00;0.00;0.62;1.63;1.10;;;20.50;26.90;;;;;;2240166;62;20402;-64
2022/02/03 09:58:20;0.00;0.00;0.62;0.00;0.00;0.62;1.20;0.80;;;20.50;26.90;;;;;;2238237;62;20366;-63
2022/02/03 10:01:11;0.00;0.00;0.62;0.00;0.00;0.62;1.50;1.10;;;20.60;27.00;;;;;;2237101;62;20379;-62
2022/02/03 10:04:13;0.00;0.00;0.62;0.00;0.00;0.62;2.00;1.13;;;20.50;26.90;;;;;;2237672;62;20581;-63
2022/02/03 10:07:04;0.00;0.00;0.62;0.00;0.00;0.62;1.50;1.03;;;20.50;26.90;;;;;;2237656;62;20403;-63
2022/02/03 10:09:53;0.00;0.00;0.62;0.00;0.00;0.62;2.13;1.40;;;20.50;26.90;;;;;;2237211;62;20376;-63
2022/02/03 10:12:40;0.00;0.00;0.62;0.00;0.00;0.62;1.40;1.10;;;20.60;27.00;;;;;;2238229;62;20371;-63
2022/02/03 10:15:25;0.00;0.00;0.62;0.00;0.00;0.62;1.77;1.30;;;20.60;27.00;;;;;;2236861;62;20360;-63
2022/02/03 10:18:20;0.00;0.00;0.62;0.00;0.00;0.62;1.90;1.20;;;20.60;27.00;;;;;;2237185;62;20372;-64
2022/02/03 10:21:08;0.00;0.00;0.62;0.00;0.00;0.62;1.93;1.27;;;20.60;27.00;;;;;;2238205;62;20439;-64
2022/02/03 10:23:59;0.00;0.00;0.62;0.00;0.00;0.62;1.80;1.20;;;20.60;27.00;;;;;;2237537;62;20368;-63
2022/02/03 10:26:50;0.00;0.00;0.62;0.00;0.00;0.62;1.53;1.00;;;20.60;27.00;;;;;;2237713;62;20387;-64
2022/02/03 10:29:41;0.00;0.00;0.62;0.00;0.00;0.62;1.63;1.00;;;20.60;27.00;;;;;;2237542;62;20403;-63
2022/02/03 10:32:26;0.00;0.00;0.62;0.00;0.00;0.62;1.60;1.00;;;20.60;27.00;;;;;;2237476;62;20427;-63
2022/02/03 10:47:25;0.00;0.00;0.62;0.00;0.00;0.62;1.93;1.50;;;20.60;27.00;;;;;;2237575;62;20386;-62
2022/02/03 10:50:37;0.00;0.00;0.62;0.00;0.00;0.62;2.60;1.40;;;20.60;27.00;;;;;;2248383;62;20794;-63
2022/02/03 10:57:06;0.00;0.00;0.62;0.00;0.00;0.62;1.70;1.30;;;20.60;27.00;;;;;;2241617;62;20366;-62
2022/02/03 11:08:44;0.00;0.00;0.62;0.00;0.00;0.62;2.07;1.53;;;20.70;27.10;;;;;;2241063;62;20407;-63
2022/02/03 11:11:39;0.00;0.00;0.62;0.00;0.00;0.62;2.40;1.70;;;20.70;27.10;;;;;;2241665;62;20370;-62
2022/02/03 11:14:24;0.00;0.00;0.62;0.00;0.00;0.62;2.23;1.40;;;20.70;27.10;;;;;;2241147;62;20403;-62
2022/02/03 11:17:11;0.00;0.00;0.62;0.00;0.00;0.62;2.20;1.50;;;20.70;27.10;;;;;;2241261;62;20370;-61
2022/02/03 11:19:58;0.00;0.00;0.62;0.00;0.00;0.62;2.13;1.60;;;20.70;27.10;;;;;;2241787;62;20514;-62
2022/02/03 11:23:24;0.00;0.00;0.62;0.00;0.00;0.62;2.13;1.80;;;20.70;27.10;;;;;;2240736;62;20398;-64
2022/02/03 11:26:14;0.00;0.00;0.62;0.00;0.00;0.62;1.90;1.63;;;20.70;27.10;;;;;;2241586;62;20390;-63
2022/02/03 11:38:47;0.00;0.00;0.62;0.00;0.00;0.62;2.20;1.77;;;20.70;27.10;;;;;;2241116;62;20387;-64
2022/02/03 11:42:04;0.00;0.00;0.62;0.00;0.00;0.62;2.13;1.70;;;20.70;27.10;;;;;;2242037;62;20446;-63
2022/02/03 12:22:08;0.00;0.00;0.62;0.00;0.00;0.62;1.97;1.30;;;20.80;27.20;;;;;;2239311;62;20442;-64
2022/02/03 12:25:09;0.00;0.00;0.62;0.00;0.00;0.62;2.43;1.70;;;20.80;27.20;;;;;;2241252;62;20422;-63
2022/02/03 12:28:12;0.00;0.00;0.62;0.00;0.00;0.62;2.53;1.63;;;20.80;27.20;;;;;;2240838;62;20431;-63
2022/02/03 12:37:18;0.00;0.00;0.62;0.00;0.00;0.62;1.90;1.67;;;20.80;27.20;;;;;;2241153;62;20395;-63
2022/02/03 12:40:13;0.00;0.00;0.62;0.00;0.00;0.62;1.97;1.57;;;20.80;27.20;;;;;;2240697;62;20394;-63
2022/02/03 12:46:07;0.00;0.00;0.62;0.00;0.00;0.62;1.70;1.47;;;20.80;27.20;;;;;;2240924;62;20436;-63
2022/02/03 12:48:55;0.00;0.00;0.62;0.00;0.00;0.62;2.10;1.57;;;20.80;27.20;;;;;;2239249;62;20402;-64
2022/02/03 12:51:40;0.00;0.00;0.62;0.00;0.00;0.62;2.03;1.43;;;20.80;27.20;;;;;;2237212;62;20563;-63
2022/02/03 12:54:31;0.00;0.00;0.62;0.00;0.00;0.62;1.90;1.27;;;20.80;27.20;;;;;;2237264;62;20367;-63
2022/02/03 12:57:30;0.00;0.00;0.62;0.00;0.00;0.62;1.60;1.23;;;20.80;27.20;;;;;;2237210;62;20366;-63
2022/02/03 13:00:32;0.00;0.00;0.62;0.00;0.00;0.62;1.90;1.33;;;20.90;27.20;;;;;;2236966;62;20400;-64
2022/02/03 13:03:18;0.00;0.00;0.62;0.00;0.00;0.62;1.70;1.50;;;20.90;27.20;;;;;;2237828;62;20378;-64
2022/02/03 13:06:08;0.00;0.00;0.62;0.00;0.00;0.62;1.80;1.57;;;20.90;27.20;;;;;;2236523;62;20368;-64
2022/02/03 13:08:56;0.00;0.00;0.62;0.00;0.00;0.62;1.70;1.30;;;20.90;27.20;;;;;;2237137;62;20356;-64
2022/02/03 13:11:53;0.00;0.00;0.62;0.00;0.00;0.62;2.10;1.40;;;20.90;27.20;;;;;;2237167;62;20439;-62
2022/02/03 13:14:46;0.00;0.00;0.62;0.00;0.00;0.62;1.90;1.30;;;20.90;27.30;;;;;;2237122;62;20367;-64
2022/02/03 13:17:36;0.00;0.00;0.62;0.00;0.00;0.62;1.90;1.37;;;20.90;27.20;;;;;;2237589;62;20465;-64
2022/02/03 13:20:32;0.00;0.00;0.62;0.00;0.00;0.62;1.80;1.50;;;20.90;27.20;;;;;;2236463;62;20471;-63
2022/02/03 13:23:21;0.00;0.00;0.62;0.00;0.00;0.62;3.00;1.43;;;20.90;27.20;;;;;;2237270;62;20437;-64
2022/02/03 13:26:13;0.00;0.00;0.62;0.00;0.00;0.62;2.80;1.90;;;20.90;27.30;;;;;;2237659;62;20379;-63
2022/02/03 13:29:03;0.00;0.00;0.62;0.00;0.00;0.62;1.70;1.30;;;20.90;27.20;;;;;;2236870;62;20395;-63
2022/02/03 13:31:56;0.00;0.00;0.62;0.00;0.00;0.62;2.17;1.40;;;20.90;27.20;;;;;;2237352;62;20359;-65
2022/02/03 13:35:05;0.00;0.00;0.62;0.00;0.00;0.62;1.90;1.33;;;20.90;27.20;;;;;;2237070;62;20364;-63
2022/02/03 13:37:52;0.00;0.00;0.62;0.00;0.00;0.62;1.90;1.37;;;20.90;27.20;;;;;;2237093;62;20392;-64
2022/02/03 13:40:37;0.00;0.00;0.62;0.00;0.00;0.62;1.93;1.60;;;20.90;27.30;;;;;;2237555;62;20398;-65
2022/02/03 13:43:24;0.00;0.00;0.62;0.00;0.00;0.62;2.03;1.53;;;20.90;27.20;;;;;;2236508;62;20403;-61
2022/02/03 13:46:24;0.00;0.00;0.62;0.00;0.00;0.62;2.17;1.50;;;20.90;27.20;;;;;;2237918;62;20404;-66
2022/02/03 13:49:15;0.00;0.00;0.62;0.00;0.00;0.62;3.00;1.37;;;20.90;27.20;;;;;;2240365;62;20390;-62
2022/02/03 13:52:07;0.00;0.00;0.62;0.00;0.00;0.62;2.10;1.50;;;20.90;27.20;;;;;;2241752;62;20577;-62
2022/02/03 14:11:36;0.00;0.00;0.62;0.00;0.00;0.62;1.80;1.50;;;21.00;27.30;;;;;;2241986;62;20383;-63
2022/02/03 14:14:27;0.00;0.00;0.62;0.00;0.00;0.62;1.77;1.20;;;21.00;27.30;;;;;;2241446;62;20597;-65
2022/02/03 14:23:30;0.00;0.00;0.62;0.00;0.00;0.62;1.70;1.40;;;21.00;27.30;;;;;;2241728;62;20395;-64
2022/02/03 14:29:08;0.00;0.00;0.62;0.00;0.00;0.62;2.10;1.63;;;21.00;27.30;;;;;;2241436;62;20362;-62
2022/02/03 14:32:03;0.00;0.00;0.62;0.00;0.00;0.62;1.80;1.40;;;21.00;27.30;;;;;;2242129;62;20737;-62
2022/02/03 14:34:50;0.00;0.00;0.62;0.00;0.00;0.62;1.90;1.23;;;21.00;27.30;;;;;;2241073;62;20370;-64
2022/02/03 14:37:44;0.00;0.00;0.62;0.00;0.00;0.62;1.93;1.30;;;21.00;27.30;;;;;;2241676;62;20358;-62
2022/02/03 14:40:39;0.00;0.00;0.62;0.00;0.00;0.62;1.50;1.20;;;21.00;27.30;;;;;;2241251;62;20766;-62
2022/02/03 14:43:24;0.00;0.00;0.62;0.00;0.00;0.62;1.63;1.13;;;21.00;27.30;;;;;;2241550;62;20406;-63
2022/02/03 14:46:13;0.00;0.00;0.62;0.00;0.00;0.62;1.77;1.20;;;21.00;27.30;;;;;;2241734;62;20387;-63
2022/02/03 14:48:58;0.00;0.00;0.62;0.00;0.00;0.62;1.80;1.13;;;21.00;27.30;;;;;;2238342;62;20415;-61
2022/02/03 14:51:51;0.00;0.00;0.62;0.00;0.00;0.62;2.13;1.23;;;21.00;27.30;;;;;;2237449;62;20412;-63
2022/02/03 15:00:47;0.00;0.00;0.62;0.00;0.00;0.62;1.70;1.23;;;21.00;27.50;;;;;;2237675;62;20490;-64
2022/02/03 15:03:32;0.00;0.00;0.62;0.00;0.00;0.62;1.70;1.20;;;21.00;27.30;;;;;;2237459;62;20586;-64
2022/02/03 15:06:22;0.00;0.00;0.62;0.00;0.00;0.62;1.50;1.10;;;21.00;27.30;;;;;;2237337;62;20485;-64
2022/02/03 15:09:19;0.00;0.00;0.62;0.00;0.00;0.62;2.03;1.40;;;21.00;27.30;;;;;;2237939;62;20440;-64
2022/02/03 15:12:21;0.00;0.00;0.62;0.00;0.00;0.62;1.70;1.40;;;21.00;27.30;;;;;;2236753;62;20387;-64
2022/02/03 15:15:09;0.00;0.00;0.62;0.00;0.00;0.62;1.87;1.23;;;21.00;27.30;;;;;;2237674;62;20371;-63
2022/02/03 15:17:54;0.00;0.00;0.62;0.00;0.00;0.62;2.20;1.30;;;21.00;27.40;;;;;;2237463;62;20440;-64
2022/02/03 15:20:39;0.00;0.00;0.62;0.00;0.00;0.62;2.13;1.47;;;21.00;27.30;;;;;;2237527;62;20705;-63
2022/02/03 15:23:24;0.00;0.00;0.62;0.00;0.00;0.62;1.40;1.03;;;21.00;27.30;;;;;;2238050;62;20406;-64
2022/02/03 15:26:11;0.00;0.00;0.62;0.00;0.00;0.62;1.57;1.20;;;21.00;27.30;;;;;;2237117;62;20383;-63
2022/02/03 15:28:57;0.00;0.00;0.62;0.00;0.00;0.62;1.77;1.17;;;21.00;27.30;;;;;;2237196;62;20367;-62
2022/02/03 15:31:42;0.00;0.00;0.62;0.00;0.00;0.62;1.93;1.20;;;21.10;27.40;;;;;;2237991;62;20630;-62
2022/02/03 15:34:27;0.00;0.00;0.62;0.00;0.00;0.62;1.60;1.20;;;21.10;27.40;;;;;;2237203;62;20363;-64
2022/02/03 15:37:14;0.00;0.00;0.62;0.00;0.00;0.62;1.60;1.10;;;21.10;27.40;;;;;;2237350;62;20398;-62
2022/02/03 15:40:03;0.00;0.00;0.62;0.00;0.00;0.62;1.67;1.27;;;21.10;27.40;;;;;;2236768;62;20455;-65
2022/02/03 15:42:59;0.00;0.00;0.62;0.00;0.00;0.62;2.00;1.40;;;21.10;27.40;;;;;;2237453;62;20724;-63
2022/02/03 15:45:48;0.00;0.00;0.62;0.00;0.00;0.62;1.83;1.37;;;21.10;27.40;;;;;;2237998;62;20360;-64
2022/02/03 15:48:44;0.00;0.00;0.62;0.00;0.00;0.62;1.80;1.20;;;21.10;27.40;;;;;;2238752;62;20463;-63
2022/02/03 16:03:32;0.00;0.00;0.62;0.00;0.00;0.62;1.60;1.03;;;21.10;27.40;;;;;;2240924;62;20445;-64
2022/02/03 16:18:34;0.00;0.00;0.62;0.00;0.00;0.62;2.00;1.30;;;21.10;27.40;;;;;;2240534;62;20394;-64
2022/02/03 16:21:26;0.00;0.00;0.62;0.00;0.00;0.62;1.60;1.40;;;21.10;27.40;;;;;;2240140;62;20394;-63
2022/02/03 16:51:32;0.00;0.00;0.62;0.00;0.00;0.62;2.43;1.83;;;21.20;27.40;;;;;;2241071;62;20382;-65
2022/02/03 16:54:18;0.00;0.00;0.62;0.00;0.00;0.62;2.10;1.70;;;21.20;27.40;;;;;;2240742;62;20398;-63
2022/02/03 16:57:10;0.00;0.00;0.62;0.00;0.00;0.62;3.53;1.60;;;21.20;27.40;;;;;;2234536;62;20408;-62
2022/02/03 17:00:07;0.00;0.00;0.62;0.00;0.00;0.62;4.07;2.00;;;21.20;27.40;;;;;;2237296;62;20394;-63
2022/02/03 17:02:51;0.00;0.00;0.62;0.00;0.00;0.62;1.90;1.43;;;21.20;28.00;;;;;;2236358;62;20363;-65
2022/02/03 17:05:38;0.00;0.00;0.62;0.00;0.00;0.62;2.03;1.40;;;21.20;27.50;;;;;;2237234;62;20396;-63
2022/02/03 17:08:24;0.00;0.00;0.62;0.00;0.00;0.62;1.80;1.47;;;21.20;27.40;;;;;;2236875;62;20371;-64
2022/02/03 17:11:09;0.00;0.00;0.62;0.00;0.00;0.62;2.80;2.27;;;21.20;27.40;;;;;;2236898;62;20419;-62
2022/02/03 17:13:53;0.00;0.00;0.62;0.00;0.00;0.62;2.30;1.73;;;21.30;27.50;;;;;;2237147;62;20407;-63
2022/02/03 17:16:38;0.00;0.00;0.62;0.00;0.00;0.62;1.80;1.53;;;21.30;28.10;;;;;;2236897;62;20391;-63
2022/02/03 17:19:22;0.00;0.00;0.62;0.00;0.00;0.62;2.60;2.00;;;21.30;27.50;;;;;;2236782;62;20383;-63
2022/02/03 17:22:11;0.00;0.00;0.62;0.00;0.00;0.62;2.20;1.30;;;21.30;27.50;;;;;;2238239;62;20590;-63
2022/02/03 17:25:06;0.00;0.00;0.62;0.00;0.00;0.62;1.97;1.73;;;21.30;27.50;;;;;;2237164;62;20383;-64
2022/02/03 17:28:07;0.00;0.00;0.62;0.00;0.00;0.62;2.73;2.03;;;21.30;27.50;;;;;;2237801;62;20794;-66
2022/02/03 17:30:58;0.00;0.00;0.62;0.00;0.00;0.62;3.17;1.63;;;21.30;27.50;;;;;;2237589;62;20377;-62
2022/02/03 18:05:02;0.00;0.00;0.62;0.00;0.00;0.62;1.90;1.40;;;21.50;27.70;;;;;;2237397;62;20367;-65
2022/02/03 18:08:11;0.00;0.00;0.62;0.00;0.00;0.62;2.43;1.77;;;21.50;27.70;;;;;;2237845;62;20371;-65
2022/02/03 18:25:45;0.00;0.00;0.62;0.00;0.00;0.62;1.90;1.60;;;21.60;27.70;;;;;;2237217;62;20395;-65
2022/02/03 18:50:13;0.00;0.00;0.62;0.00;0.00;0.62;1.93;1.50;;;21.70;27.80;;;;;;2240925;62;20402;-63
2022/02/03 18:53:19;0.00;0.00;0.62;0.00;0.00;0.62;2.13;1.60;;;21.80;27.90;;;;;;2240966;62;20483;-63
2022/02/03 19:23:44;0.00;0.00;0.62;0.00;0.00;0.62;2.57;1.97;;;21.90;27.90;;;;;;2240757;62;20442;-63
2022/02/03 20:11:39;0.00;0.00;0.62;0.00;0.00;0.62;1.80;1.60;;;21.90;27.90;;;;;;2237346;62;20435;-59
2022/02/03 20:14:24;0.00;0.00;0.62;0.00;0.00;0.62;1.70;1.50;;;21.90;27.90;;;;;;2236741;62;20363;-58
2022/02/03 20:17:09;0.00;0.00;0.62;0.00;0.00;0.62;1.93;1.33;;;21.90;27.90;;;;;;2236989;62;20431;-60
2022/02/03 20:19:55;0.00;0.00;0.62;0.00;0.00;0.62;1.70;1.33;;;21.90;27.90;;;;;;2237446;62;20390;-60
2022/02/03 20:22:40;0.00;0.00;0.62;0.00;0.00;0.62;1.50;1.07;;;21.90;27.90;;;;;;2236442;62;20368;-59
2022/02/03 20:25:25;0.00;0.00;0.62;0.00;0.00;0.62;2.20;1.50;;;21.90;27.90;;;;;;2237215;62;20371;-60
2022/02/03 20:28:10;0.00;0.00;0.62;0.00;0.00;0.62;2.10;1.40;;;21.90;27.90;;;;;;2236926;62;20411;-60
2022/02/03 20:30:55;0.00;0.00;0.62;0.00;0.00;0.62;1.80;1.50;;;21.90;27.90;;;;;;2236923;62;20664;-59
2022/02/03 20:33:40;0.00;0.00;0.62;0.00;0.00;0.62;2.20;1.80;;;21.90;27.90;;;;;;2237217;62;20415;-59
2022/02/03 20:36:26;0.00;0.00;0.62;0.00;0.00;0.62;2.20;2.00;;;21.90;27.90;;;;;;2236961;62;20363;-60
2022/02/03 20:39:11;0.00;0.00;0.62;0.00;0.00;0.62;1.80;1.60;;;21.90;27.90;;;;;;2236260;62;20614;-59
2022/02/03 20:41:55;0.00;0.00;0.62;0.00;0.00;0.62;1.73;1.57;;;21.90;27.90;;;;;;2237545;62;20399;-60
2022/02/03 20:44:39;0.00;0.00;0.62;0.00;0.00;0.62;1.90;1.67;;;21.90;27.90;;;;;;2236717;62;20547;-60
2022/02/03 20:47:25;0.00;0.00;0.62;0.00;0.00;0.62;1.87;1.63;;;21.90;27.90;;;;;;2236793;62;20364;-60
2022/02/03 20:50:17;0.00;0.00;0.62;0.00;0.00;0.62;2.20;1.50;;;21.90;27.90;;;;;;2241024;62;20398;-61
2022/02/03 20:53:06;0.00;0.00;0.62;0.00;0.00;0.62;1.60;1.40;;;21.90;28.00;;;;;;2240811;62;20414;-60
2022/02/03 20:55:51;0.00;0.00;0.62;0.00;0.00;0.62;1.67;1.37;;;21.90;28.00;;;;;;2240970;62;20363;-61
2022/02/03 20:58:36;0.00;0.00;0.62;0.00;0.00;0.62;1.60;1.30;;;21.90;27.90;;;;;;2240710;62;20406;-59
2022/02/03 21:01:31;0.00;0.00;0.62;0.00;0.00;0.62;2.03;1.30;;;21.90;28.40;;;;;;2240977;62;20462;-60
2022/02/03 21:04:29;0.00;0.00;0.62;0.00;0.00;0.62;2.10;1.40;;;21.90;27.90;;;;;;2241275;62;20430;-60
2022/02/03 21:07:14;0.00;0.00;0.62;0.00;0.00;0.62;2.00;1.30;;;21.90;27.90;;;;;;2240484;62;20383;-60
2022/02/03 21:10:03;0.00;0.00;0.62;0.00;0.00;0.62;1.67;1.40;;;21.90;27.90;;;;;;2240909;62;20406;-61
2022/02/03 21:12:48;0.00;0.00;0.62;0.00;0.00;0.62;1.50;1.30;;;21.90;27.90;;;;;;2240838;62;20450;-60
2022/02/03 21:15:36;0.00;0.00;0.62;0.00;0.00;0.62;1.93;1.33;;;21.90;27.90;;;;;;2240586;62;20362;-58
2022/02/03 21:18:23;0.00;0.00;0.62;0.00;0.00;0.62;1.80;1.30;;;21.90;27.90;;;;;;2240944;62;20398;-58
2022/02/03 21:21:09;0.00;0.00;0.62;0.00;0.00;0.62;1.70;1.17;;;21.90;27.90;;;;;;2240435;62;20389;-59
2022/02/03 21:23:53;0.00;0.00;0.62;0.00;0.00;0.62;2.80;1.70;;;22.00;28.00;;;;;;2240802;62;20716;-58